West Peterborough, NH (03468)

1:04 PM EDT on May 22, 2015 (GMT -0400)
HADS | | Change Station
CLOSE
Current Station
Personal Weather Station
Location: West Peterborough, NH
Elevation: 931 ft
Nearby Weather Stations

Elev 931 ft 42.89 °N, 71.97 °W | Updated 34 minutes ago

Partly Cloudy
Partly Cloudy
64 °F
Feels Like 64 °F
N
Wind Variable Wind from North
Gusts 0.0 mph

Today
High -- | Low -- °F
--% Chance of Precip.
Yesterday
High -- | Low -- °F
Precip. -- in
5:18 AM 8:10 PM
Waxing Crescent, 22% visible
Pressure 29.83 in
Visibility 10.0 miles
Clouds Clear
Dew Point Not available.
Humidity Not available.
Rainfall in
Snow Depth Not available.
UV 12 out of 12
Pollen 9.90 out of 12
Air Quality Not available.
Flu Activity Regional
METAR KAFN 221652Z AUTO 29011G21KT 260V330 10SM CLR 19/M01 A2982 RMK AO2 SLP102 T01941011

More Conditions Fewer Conditions

Pressure 29.83 in
Visibility 10.0 miles
Clouds Clear
Dew Point Not available.
Humidity Not available.
Rainfall in
Snow Depth Not available.
UV 12 out of 12
Pollen 9.90 out of 12
Air Quality Not available.
Flu Activity Regional
METAR KAFN 221652Z AUTO 29011G21KT 260V330 10SM CLR 19/M01 A2982 RMK AO2 SLP102 T01941011

More Conditions Fewer Conditions

10-Day Weather Forecast

Almanac

Astronomy

May. 22, 2015 Rise Set
Actual Time
Civil Twilight
Nautical Twilight
Astronomical Twilight
Moon
Length of Visible Light
Length of Day
Tomorrow will be .
, % of the Moon is Illuminated

Today's Extremes

State Highs State Lows

Community

WunderPhotos

Upload Photos

1,823,266 photos uploaded!

WunderBlogs® & News

Nearby

Air Quality

  Air Quality AQ Index Pollutant
Not available.

Snow Depth

Station Depth Elevation

Earthquake Activity

City Distance Mag. Time & Date
Minimum magnitude displayed is 2.5.

Coastal Water Temperatures

Place Temperature

Stations

Nearby Weather Stations

Station Location Temp. Windchill Dew Point Humidity Wind Precip. Elev Updated Type